sensor_id;sensor_type;location;lat;lon;timestamp;temperature;humidity
69503;SHT31;56704;54.242;12.442;2022-10-30T00:01:31;13.39;93.74
69503;SHT31;56704;54.242;12.442;2022-10-30T00:03:58;13.41;93.82
69503;SHT31;56704;54.242;12.442;2022-10-30T00:06:24;13.42;93.77
69503;SHT31;56704;54.242;12.442;2022-10-30T00:08:51;13.44;93.77
69503;SHT31;56704;54.242;12.442;2022-10-30T00:11:19;13.47;93.81
69503;SHT31;56704;54.242;12.442;2022-10-30T00:13:45;13.49;93.76
69503;SHT31;56704;54.242;12.442;2022-10-30T00:16:12;13.48;94.01
69503;SHT31;56704;54.242;12.442;2022-10-30T00:18:39;13.48;93.89
69503;SHT31;56704;54.242;12.442;2022-10-30T00:21:07;13.48;94.19
69503;SHT31;56704;54.242;12.442;2022-10-30T00:23:34;13.44;93.81
69503;SHT31;56704;54.242;12.442;2022-10-30T00:26:02;13.44;94.06
69503;SHT31;56704;54.242;12.442;2022-10-30T00:28:30;13.41;94.16
69503;SHT31;56704;54.242;12.442;2022-10-30T00:31:00;13.38;94.02
69503;SHT31;56704;54.242;12.442;2022-10-30T00:33:27;13.38;94.24
69503;SHT31;56704;54.242;12.442;2022-10-30T00:35:54;13.34;94.17
69503;SHT31;56704;54.242;12.442;2022-10-30T00:38:20;13.28;94.03
69503;SHT31;56704;54.242;12.442;2022-10-30T00:40:47;13.25;94.17
69503;SHT31;56704;54.242;12.442;2022-10-30T00:43:28;13.24;94.52
69503;SHT31;56704;54.242;12.442;2022-10-30T00:45:57;13.18;94.42
69503;SHT31;56704;54.242;12.442;2022-10-30T00:48:25;13.14;94.48
69503;SHT31;56704;54.242;12.442;2022-10-30T00:50:52;13.15;94.73
69503;SHT31;56704;54.242;12.442;2022-10-30T00:53:20;13.12;94.76
69503;SHT31;56704;54.242;12.442;2022-10-30T00:55:50;13.10;94.14
69503;SHT31;56704;54.242;12.442;2022-10-30T00:58:22;13.07;94.50
69503;SHT31;56704;54.242;12.442;2022-10-30T01:00:52;13.06;94.75
69503;SHT31;56704;54.242;12.442;2022-10-30T01:03:22;13.04;94.65
69503;SHT31;56704;54.242;12.442;2022-10-30T01:05:52;13.07;95.03
69503;SHT31;56704;54.242;12.442;2022-10-30T01:08:20;13.04;94.80
69503;SHT31;56704;54.242;12.442;2022-10-30T01:10:47;12.99;94.32
69503;SHT31;56704;54.242;12.442;2022-10-30T01:13:15;12.97;94.84
69503;SHT31;56704;54.242;12.442;2022-10-30T01:15:51;12.93;94.64
69503;SHT31;56704;54.242;12.442;2022-10-30T01:18:34;12.86;94.88
69503;SHT31;56704;54.242;12.442;2022-10-30T01:21:18;12.80;95.04
69503;SHT31;56704;54.242;12.442;2022-10-30T01:23:55;12.73;95.06
69503;SHT31;56704;54.242;12.442;2022-10-30T01:26:36;12.70;95.04
69503;SHT31;56704;54.242;12.442;2022-10-30T01:29:20;12.69;95.26
69503;SHT31;56704;54.242;12.442;2022-10-30T01:31:57;12.66;95.53
69503;SHT31;56704;54.242;12.442;2022-10-30T01:34:34;12.63;95.36
69503;SHT31;56704;54.242;12.442;2022-10-30T01:37:11;12.63;95.36
69503;SHT31;56704;54.242;12.442;2022-10-30T01:39:40;12.56;95.42
69503;SHT31;56704;54.242;12.442;2022-10-30T01:42:46;12.55;95.48
69503;SHT31;56704;54.242;12.442;2022-10-30T01:45:17;12.60;95.72
69503;SHT31;56704;54.242;12.442;2022-10-30T01:47:56;12.55;95.54
69503;SHT31;56704;54.242;12.442;2022-10-30T01:50:35;12.49;95.35
69503;SHT31;56704;54.242;12.442;2022-10-30T01:53:13;12.49;95.37
69503;SHT31;56704;54.242;12.442;2022-10-30T01:55:48;12.46;96.05
69503;SHT31;56704;54.242;12.442;2022-10-30T01:58:21;12.43;95.70
69503;SHT31;56704;54.242;12.442;2022-10-30T02:00:52;12.45;95.95
69503;SHT31;56704;54.242;12.442;2022-10-30T02:03:20;12.43;95.64
69503;SHT31;56704;54.242;12.442;2022-10-30T02:05:50;12.50;96.27
69503;SHT31;56704;54.242;12.442;2022-10-30T02:08:17;12.52;95.93
69503;SHT31;56704;54.242;12.442;2022-10-30T02:10:46;12.46;95.81
69503;SHT31;56704;54.242;12.442;2022-10-30T02:13:13;12.45;96.16
69503;SHT31;56704;54.242;12.442;2022-10-30T02:15:40;12.45;96.00
69503;SHT31;56704;54.242;12.442;2022-10-30T02:18:07;12.43;95.89
69503;SHT31;56704;54.242;12.442;2022-10-30T02:20:36;12.42;96.18
69503;SHT31;56704;54.242;12.442;2022-10-30T02:23:03;12.40;95.91
69503;SHT31;56704;54.242;12.442;2022-10-30T02:25:30;12.40;95.79
69503;SHT31;56704;54.242;12.442;2022-10-30T02:27:57;12.36;95.66
69503;SHT31;56704;54.242;12.442;2022-10-30T02:30:24;12.36;96.08
69503;SHT31;56704;54.242;12.442;2022-10-30T02:32:50;12.32;95.68
69503;SHT31;56704;54.242;12.442;2022-10-30T02:35:17;12.33;95.57
69503;SHT31;56704;54.242;12.442;2022-10-30T02:37:47;12.30;95.59
69503;SHT31;56704;54.242;12.442;2022-10-30T02:40:14;12.32;96.18
69503;SHT31;56704;54.242;12.442;2022-10-30T02:42:41;12.29;96.20
69503;SHT31;56704;54.242;12.442;2022-10-30T02:45:08;12.26;96.23
69503;SHT31;56704;54.242;12.442;2022-10-30T02:47:35;12.25;96.42
69503;SHT31;56704;54.242;12.442;2022-10-30T02:50:02;12.30;96.78
69503;SHT31;56704;54.242;12.442;2022-10-30T02:52:29;12.32;96.78
69503;SHT31;56704;54.242;12.442;2022-10-30T02:54:57;12.32;96.51
69503;SHT31;56704;54.242;12.442;2022-10-30T02:57:23;12.32;96.67
69503;SHT31;56704;54.242;12.442;2022-10-30T02:59:50;12.36;96.60
69503;SHT31;56704;54.242;12.442;2022-10-30T03:02:16;12.38;96.62
69503;SHT31;56704;54.242;12.442;2022-10-30T03:04:43;12.36;96.54
69503;SHT31;56704;54.242;12.442;2022-10-30T03:07:09;12.43;96.94
69503;SHT31;56704;54.242;12.442;2022-10-30T03:09:36;12.43;96.77
69503;SHT31;56704;54.242;12.442;2022-10-30T03:12:04;12.48;96.64
69503;SHT31;56704;54.242;12.442;2022-10-30T03:14:31;12.52;96.79
69503;SHT31;56704;54.242;12.442;2022-10-30T03:16:57;12.55;96.71
69503;SHT31;56704;54.242;12.442;2022-10-30T03:19:24;12.55;96.70
69503;SHT31;56704;54.242;12.442;2022-10-30T03:21:52;12.59;96.46
69503;SHT31;56704;54.242;12.442;2022-10-30T03:24:18;12.57;96.68
69503;SHT31;56704;54.242;12.442;2022-10-30T03:26:45;12.59;96.49
69503;SHT31;56704;54.242;12.442;2022-10-30T03:29:13;12.61;96.68
69503;SHT31;56704;54.242;12.442;2022-10-30T03:31:40;12.64;96.64
69503;SHT31;56704;54.242;12.442;2022-10-30T03:34:06;12.66;96.59
69503;SHT31;56704;54.242;12.442;2022-10-30T03:36:33;12.75;96.90
69503;SHT31;56704;54.242;12.442;2022-10-30T03:38:59;12.79;96.83
69503;SHT31;56704;54.242;12.442;2022-10-30T03:41:26;12.87;96.96
69503;SHT31;56704;54.242;12.442;2022-10-30T03:43:53;12.89;96.72
69503;SHT31;56704;54.242;12.442;2022-10-30T03:46:20;12.90;96.35
69503;SHT31;56704;54.242;12.442;2022-10-30T03:48:48;12.90;96.49
69503;SHT31;56704;54.242;12.442;2022-10-30T03:51:15;12.93;96.74
69503;SHT31;56704;54.242;12.442;2022-10-30T03:53:42;12.93;96.62
69503;SHT31;56704;54.242;12.442;2022-10-30T03:56:08;12.97;96.51
69503;SHT31;56704;54.242;12.442;2022-10-30T03:58:35;12.91;96.48
69503;SHT31;56704;54.242;12.442;2022-10-30T04:01:03;12.91;96.52
69503;SHT31;56704;54.242;12.442;2022-10-30T04:03:31;12.93;96.55
69503;SHT31;56704;54.242;12.442;2022-10-30T04:05:58;12.93;96.53
69503;SHT31;56704;54.242;12.442;2022-10-30T04:08:25;12.90;96.27
69503;SHT31;56704;54.242;12.442;2022-10-30T04:10:51;12.90;96.47
69503;SHT31;56704;54.242;12.442;2022-10-30T04:13:18;12.87;96.10
69503;SHT31;56704;54.242;12.442;2022-10-30T04:15:46;12.81;96.21
69503;SHT31;56704;54.242;12.442;2022-10-30T04:18:14;12.80;96.19
69503;SHT31;56704;54.242;12.442;2022-10-30T04:20:43;12.80;96.09
69503;SHT31;56704;54.242;12.442;2022-10-30T04:23:12;12.73;96.37
69503;SHT31;56704;54.242;12.442;2022-10-30T04:25:39;12.73;96.27
69503;SHT31;56704;54.242;12.442;2022-10-30T04:28:05;12.72;96.45
69503;SHT31;56704;54.242;12.442;2022-10-30T04:30:32;12.70;96.44
69503;SHT31;56704;54.242;12.442;2022-10-30T04:33:01;12.72;96.69
69503;SHT31;56704;54.242;12.442;2022-10-30T04:35:30;12.73;96.55
69503;SHT31;56704;54.242;12.442;2022-10-30T04:37:59;12.73;96.72
69503;SHT31;56704;54.242;12.442;2022-10-30T04:40:28;12.76;96.79
69503;SHT31;56704;54.242;12.442;2022-10-30T04:42:55;12.75;96.67
69503;SHT31;56704;54.242;12.442;2022-10-30T04:45:22;12.73;96.76
69503;SHT31;56704;54.242;12.442;2022-10-30T04:47:48;12.75;96.49
69503;SHT31;56704;54.242;12.442;2022-10-30T04:50:16;12.73;96.62
69503;SHT31;56704;54.242;12.442;2022-10-30T04:52:42;12.75;96.52
69503;SHT31;56704;54.242;12.442;2022-10-30T04:55:10;12.76;96.83
69503;SHT31;56704;54.242;12.442;2022-10-30T04:57:37;12.79;96.80
69503;SHT31;56704;54.242;12.442;2022-10-30T05:00:04;12.81;96.65
69503;SHT31;56704;54.242;12.442;2022-10-30T05:02:33;12.86;96.65
69503;SHT31;56704;54.242;12.442;2022-10-30T05:04:59;12.87;96.67
69503;SHT31;56704;54.242;12.442;2022-10-30T05:07:26;12.81;96.50
69503;SHT31;56704;54.242;12.442;2022-10-30T05:09:53;12.83;96.57
69503;SHT31;56704;54.242;12.442;2022-10-30T05:12:20;12.80;96.58
69503;SHT31;56704;54.242;12.442;2022-10-30T05:14:47;12.86;96.60
69503;SHT31;56704;54.242;12.442;2022-10-30T05:17:13;12.83;96.48
69503;SHT31;56704;54.242;12.442;2022-10-30T05:19:40;12.83;96.74
69503;SHT31;56704;54.242;12.442;2022-10-30T05:22:06;12.80;96.85
69503;SHT31;56704;54.242;12.442;2022-10-30T05:24:34;12.81;96.85
69503;SHT31;56704;54.242;12.442;2022-10-30T05:27:01;12.80;96.89
69503;SHT31;56704;54.242;12.442;2022-10-30T05:29:29;12.77;97.01
69503;SHT31;56704;54.242;12.442;2022-10-30T05:31:55;12.80;97.01
69503;SHT31;56704;54.242;12.442;2022-10-30T05:34:22;12.77;97.20
69503;SHT31;56704;54.242;12.442;2022-10-30T05:36:48;12.83;97.05
69503;SHT31;56704;54.242;12.442;2022-10-30T05:39:15;12.87;97.22
69503;SHT31;56704;54.242;12.442;2022-10-30T05:41:41;12.91;97.11
69503;SHT31;56704;54.242;12.442;2022-10-30T05:44:08;12.89;96.86
69503;SHT31;56704;54.242;12.442;2022-10-30T05:46:36;12.90;96.92
69503;SHT31;56704;54.242;12.442;2022-10-30T05:49:02;12.86;96.73
69503;SHT31;56704;54.242;12.442;2022-10-30T05:51:29;12.84;96.74
69503;SHT31;56704;54.242;12.442;2022-10-30T05:53:55;12.81;96.72
69503;SHT31;56704;54.242;12.442;2022-10-30T05:56:22;12.80;96.65
69503;SHT31;56704;54.242;12.442;2022-10-30T05:58:49;12.80;96.87
69503;SHT31;56704;54.242;12.442;2022-10-30T06:01:15;12.83;96.65
69503;SHT31;56704;54.242;12.442;2022-10-30T06:03:43;12.81;96.91
69503;SHT31;56704;54.242;12.442;2022-10-30T06:06:10;12.80;96.94
69503;SHT31;56704;54.242;12.442;2022-10-30T06:08:37;12.84;97.02
69503;SHT31;56704;54.242;12.442;2022-10-30T06:11:03;12.83;96.96
69503;SHT31;56704;54.242;12.442;2022-10-30T06:13:30;12.81;96.86
69503;SHT31;56704;54.242;12.442;2022-10-30T06:15:56;12.77;96.82
69503;SHT31;56704;54.242;12.442;2022-10-30T06:18:23;12.75;96.75
69503;SHT31;56704;54.242;12.442;2022-10-30T06:20:53;12.72;96.65
69503;SHT31;56704;54.242;12.442;2022-10-30T06:23:19;12.67;96.71
69503;SHT31;56704;54.242;12.442;2022-10-30T06:25:46;12.69;96.62
69503;SHT31;56704;54.242;12.442;2022-10-30T06:28:13;12.64;96.82
69503;SHT31;56704;54.242;12.442;2022-10-30T06:30:40;12.66;96.84
69503;SHT31;56704;54.242;12.442;2022-10-30T06:33:08;12.64;96.72
69503;SHT31;56704;54.242;12.442;2022-10-30T06:35:35;12.64;96.80
69503;SHT31;56704;54.242;12.442;2022-10-30T06:38:03;12.63;96.85
69503;SHT31;56704;54.242;12.442;2022-10-30T06:40:29;12.61;96.83
69503;SHT31;56704;54.242;12.442;2022-10-30T06:42:56;12.59;96.86
69503;SHT31;56704;54.242;12.442;2022-10-30T06:45:23;12.60;96.87
69503;SHT31;56704;54.242;12.442;2022-10-30T06:47:50;12.61;96.81
69503;SHT31;56704;54.242;12.442;2022-10-30T06:50:19;12.59;96.83
69503;SHT31;56704;54.242;12.442;2022-10-30T06:52:46;12.59;96.81
69503;SHT31;56704;54.242;12.442;2022-10-30T06:55:15;12.60;96.84
69503;SHT31;56704;54.242;12.442;2022-10-30T06:57:42;12.60;96.72
69503;SHT31;56704;54.242;12.442;2022-10-30T07:00:10;12.60;96.70
69503;SHT31;56704;54.242;12.442;2022-10-30T07:02:37;12.59;96.74
69503;SHT31;56704;54.242;12.442;2022-10-30T07:05:04;12.60;96.82
69503;SHT31;56704;54.242;12.442;2022-10-30T07:07:30;12.60;96.79
69503;SHT31;56704;54.242;12.442;2022-10-30T07:09:57;12.59;97.02
69503;SHT31;56704;54.242;12.442;2022-10-30T07:12:24;12.60;97.00
69503;SHT31;56704;54.242;12.442;2022-10-30T07:14:51;12.63;97.07
69503;SHT31;56704;54.242;12.442;2022-10-30T07:17:17;12.66;96.89
69503;SHT31;56704;54.242;12.442;2022-10-30T07:19:44;12.72;97.07
69503;SHT31;56704;54.242;12.442;2022-10-30T07:22:10;12.77;97.06
69503;SHT31;56704;54.242;12.442;2022-10-30T07:24:37;12.79;96.97
69503;SHT31;56704;54.242;12.442;2022-10-30T07:27:03;12.86;96.95
69503;SHT31;56704;54.242;12.442;2022-10-30T07:29:31;13.00;96.84
69503;SHT31;56704;54.242;12.442;2022-10-30T07:31:58;13.15;96.68
69503;SHT31;56704;54.242;12.442;2022-10-30T07:34:24;13.30;96.02
69503;SHT31;56704;54.242;12.442;2022-10-30T07:36:51;13.47;95.56
69503;SHT31;56704;54.242;12.442;2022-10-30T07:39:17;13.66;95.18
69503;SHT31;56704;54.242;12.442;2022-10-30T07:41:44;13.80;94.52
69503;SHT31;56704;54.242;12.442;2022-10-30T07:44:10;13.93;94.34
69503;SHT31;56704;54.242;12.442;2022-10-30T07:46:38;14.12;93.93
69503;SHT31;56704;54.242;12.442;2022-10-30T07:49:05;14.24;93.11
69503;SHT31;56704;54.242;12.442;2022-10-30T07:51:31;14.47;92.72
69503;SHT31;56704;54.242;12.442;2022-10-30T07:53:58;14.47;92.03
69503;SHT31;56704;54.242;12.442;2022-10-30T07:56:24;14.63;92.09
69503;SHT31;56704;54.242;12.442;2022-10-30T07:58:51;14.69;91.51
69503;SHT31;56704;54.242;12.442;2022-10-30T08:01:20;14.75;90.95
69503;SHT31;56704;54.242;12.442;2022-10-30T08:03:48;14.74;91.26
69503;SHT31;56704;54.242;12.442;2022-10-30T08:06:15;14.68;91.13
69503;SHT31;56704;54.242;12.442;2022-10-30T08:08:41;14.52;91.45
69503;SHT31;56704;54.242;12.442;2022-10-30T08:11:08;14.51;91.92
69503;SHT31;56704;54.242;12.442;2022-10-30T08:13:34;14.68;91.44
69503;SHT31;56704;54.242;12.442;2022-10-30T08:16:01;14.87;90.90
69503;SHT31;56704;54.242;12.442;2022-10-30T08:18:27;15.03;90.65
69503;SHT31;56704;54.242;12.442;2022-10-30T08:20:55;15.18;89.73
69503;SHT31;56704;54.242;12.442;2022-10-30T08:23:22;15.29;89.73
69503;SHT31;56704;54.242;12.442;2022-10-30T08:25:48;15.26;89.45
69503;SHT31;56704;54.242;12.442;2022-10-30T08:28:15;15.43;89.31
69503;SHT31;56704;54.242;12.442;2022-10-30T08:30:41;15.57;89.05
69503;SHT31;56704;54.242;12.442;2022-10-30T08:33:10;15.60;88.12
69503;SHT31;56704;54.242;12.442;2022-10-30T08:35:45;15.70;88.14
69503;SHT31;56704;54.242;12.442;2022-10-30T08:38:13;15.70;87.84
69503;SHT31;56704;54.242;12.442;2022-10-30T08:40:40;15.88;87.94
69503;SHT31;56704;54.242;12.442;2022-10-30T08:43:07;15.91;86.56
69503;SHT31;56704;54.242;12.442;2022-10-30T08:45:34;16.01;86.49
69503;SHT31;56704;54.242;12.442;2022-10-30T08:48:02;16.24;87.04
69503;SHT31;56704;54.242;12.442;2022-10-30T08:50:29;16.19;85.68
69503;SHT31;56704;54.242;12.442;2022-10-30T08:52:55;16.33;86.01
69503;SHT31;56704;54.242;12.442;2022-10-30T08:55:26;16.41;85.55
69503;SHT31;56704;54.242;12.442;2022-10-30T08:57:53;16.49;85.18
69503;SHT31;56704;54.242;12.442;2022-10-30T09:00:19;16.86;84.88
69503;SHT31;56704;54.242;12.442;2022-10-30T09:02:46;17.04;84.81
69503;SHT31;56704;54.242;12.442;2022-10-30T09:05:12;17.03;83.02
69503;SHT31;56704;54.242;12.442;2022-10-30T09:07:39;16.77;84.22
69503;SHT31;56704;54.242;12.442;2022-10-30T09:10:06;16.65;84.08
69503;SHT31;56704;54.242;12.442;2022-10-30T09:12:34;16.79;84.05
69503;SHT31;56704;54.242;12.442;2022-10-30T09:15:05;17.32;84.10
69503;SHT31;56704;54.242;12.442;2022-10-30T09:17:32;17.27;83.31
69503;SHT31;56704;54.242;12.442;2022-10-30T09:19:58;17.67;83.05
69503;SHT31;56704;54.242;12.442;2022-10-30T09:22:25;17.83;82.18
69503;SHT31;56704;54.242;12.442;2022-10-30T09:24:51;18.09;81.02
69503;SHT31;56704;54.242;12.442;2022-10-30T09:27:18;18.10;79.22
69503;SHT31;56704;54.242;12.442;2022-10-30T09:29:45;18.34;78.70
69503;SHT31;56704;54.242;12.442;2022-10-30T09:32:12;18.58;78.61
69503;SHT31;56704;54.242;12.442;2022-10-30T09:34:38;18.75;78.34
69503;SHT31;56704;54.242;12.442;2022-10-30T09:37:05;18.84;77.20
69503;SHT31;56704;54.242;12.442;2022-10-30T09:39:32;18.92;76.95
69503;SHT31;56704;54.242;12.442;2022-10-30T09:45:21;19.20;75.36
69503;SHT31;56704;54.242;12.442;2022-10-30T09:47:57;19.32;74.74
69503;SHT31;56704;54.242;12.442;2022-10-30T09:50:28;19.35;74.09
69503;SHT31;56704;54.242;12.442;2022-10-30T09:53:02;19.23;73.89
69503;SHT31;56704;54.242;12.442;2022-10-30T09:55:39;19.40;73.96
69503;SHT31;56704;54.242;12.442;2022-10-30T09:58:19;19.47;72.09
69503;SHT31;56704;54.242;12.442;2022-10-30T10:00:52;19.50;73.07
69503;SHT31;56704;54.242;12.442;2022-10-30T10:03:37;19.78;72.16
69503;SHT31;56704;54.242;12.442;2022-10-30T10:06:14;19.67;71.97
69503;SHT31;56704;54.242;12.442;2022-10-30T10:08:44;19.65;71.35
69503;SHT31;56704;54.242;12.442;2022-10-30T10:11:15;19.63;71.13
69503;SHT31;56704;54.242;12.442;2022-10-30T10:13:46;19.80;71.79
69503;SHT31;56704;54.242;12.442;2022-10-30T10:16:18;19.78;70.96
69503;SHT31;56704;54.242;12.442;2022-10-30T10:18:46;19.88;70.48
69503;SHT31;56704;54.242;12.442;2022-10-30T10:21:19;19.56;70.68
69503;SHT31;56704;54.242;12.442;2022-10-30T10:23:48;19.62;71.89
69503;SHT31;56704;54.242;12.442;2022-10-30T10:26:26;19.53;71.81
69503;SHT31;56704;54.242;12.442;2022-10-30T10:29:03;19.62;72.16
69503;SHT31;56704;54.242;12.442;2022-10-30T10:31:39;19.65;72.57
69503;SHT31;56704;54.242;12.442;2022-10-30T10:34:20;19.70;72.24
69503;SHT31;56704;54.242;12.442;2022-10-30T10:36:58;19.83;72.42
69503;SHT31;56704;54.242;12.442;2022-10-30T10:39:37;20.01;70.67
69503;SHT31;56704;54.242;12.442;2022-10-30T10:42:13;19.91;70.86
69503;SHT31;56704;54.242;12.442;2022-10-30T10:44:50;19.88;70.55
69503;SHT31;56704;54.242;12.442;2022-10-30T10:47:38;19.88;70.48
69503;SHT31;56704;54.242;12.442;2022-10-30T10:50:20;20.00;70.88
69503;SHT31;56704;54.242;12.442;2022-10-30T10:52:48;20.20;71.14
69503;SHT31;56704;54.242;12.442;2022-10-30T10:55:19;20.13;69.79
69503;SHT31;56704;54.242;12.442;2022-10-30T10:57:46;20.17;70.62
69503;SHT31;56704;54.242;12.442;2022-10-30T11:00:15;20.44;70.23
69503;SHT31;56704;54.242;12.442;2022-10-30T11:02:48;20.41;69.07
69503;SHT31;56704;54.242;12.442;2022-10-30T11:05:23;20.42;68.89
69503;SHT31;56704;54.242;12.442;2022-10-30T11:07:52;20.13;69.65
69503;SHT31;56704;54.242;12.442;2022-10-30T11:10:19;20.06;70.59
69503;SHT31;56704;54.242;12.442;2022-10-30T11:12:48;19.81;70.78
69503;SHT31;56704;54.242;12.442;2022-10-30T11:15:22;19.36;71.99
69503;SHT31;56704;54.242;12.442;2022-10-30T11:17:58;19.09;72.82
69503;SHT31;56704;54.242;12.442;2022-10-30T11:20:28;18.97;73.31
69503;SHT31;56704;54.242;12.442;2022-10-30T11:22:56;18.78;73.98
69503;SHT31;56704;54.242;12.442;2022-10-30T11:25:24;18.56;74.57
69503;SHT31;56704;54.242;12.442;2022-10-30T11:27:54;18.38;75.43
69503;SHT31;56704;54.242;12.442;2022-10-30T11:30:23;18.30;75.85
69503;SHT31;56704;54.242;12.442;2022-10-30T11:32:50;18.19;75.89
69503;SHT31;56704;54.242;12.442;2022-10-30T11:35:20;18.09;75.99
69503;SHT31;56704;54.242;12.442;2022-10-30T11:37:48;18.03;76.48
69503;SHT31;56704;54.242;12.442;2022-10-30T11:40:18;17.98;76.78
69503;SHT31;56704;54.242;12.442;2022-10-30T11:42:46;17.90;77.09
69503;SHT31;56704;54.242;12.442;2022-10-30T11:45:15;17.90;77.40
69503;SHT31;56704;54.242;12.442;2022-10-30T11:47:42;18.09;77.79
69503;SHT31;56704;54.242;12.442;2022-10-30T11:50:16;18.19;76.62
69503;SHT31;56704;54.242;12.442;2022-10-30T11:52:47;18.17;76.75
69503;SHT31;56704;54.242;12.442;2022-10-30T11:55:17;18.32;76.66
69503;SHT31;56704;54.242;12.442;2022-10-30T11:57:47;18.69;75.94
69503;SHT31;56704;54.242;12.442;2022-10-30T12:00:17;19.04;75.16
69503;SHT31;56704;54.242;12.442;2022-10-30T12:02:45;19.33;73.67
69503;SHT31;56704;54.242;12.442;2022-10-30T12:05:30;19.65;72.14
69503;SHT31;56704;54.242;12.442;2022-10-30T12:08:17;19.73;71.89
69503;SHT31;56704;54.242;12.442;2022-10-30T12:10:45;19.83;71.40
69503;SHT31;56704;54.242;12.442;2022-10-30T12:13:14;20.11;71.42
69503;SHT31;56704;54.242;12.442;2022-10-30T12:15:42;20.29;70.76
69503;SHT31;56704;54.242;12.442;2022-10-30T12:18:17;20.45;70.44
69503;SHT31;56704;54.242;12.442;2022-10-30T12:20:48;20.35;69.48
69503;SHT31;56704;54.242;12.442;2022-10-30T12:23:19;20.29;69.21
69503;SHT31;56704;54.242;12.442;2022-10-30T12:25:51;20.27;69.60
69503;SHT31;56704;54.242;12.442;2022-10-30T12:28:19;20.51;69.70
69503;SHT31;56704;54.242;12.442;2022-10-30T12:30:50;20.76;68.92
69503;SHT31;56704;54.242;12.442;2022-10-30T12:33:21;20.89;68.50
69503;SHT31;56704;54.242;12.442;2022-10-30T12:35:52;20.76;67.78
69503;SHT31;56704;54.242;12.442;2022-10-30T12:38:24;20.44;68.95
69503;SHT31;56704;54.242;12.442;2022-10-30T12:40:59;20.28;70.35
69503;SHT31;56704;54.242;12.442;2022-10-30T12:43:27;20.18;70.30
69503;SHT31;56704;54.242;12.442;2022-10-30T12:46:03;20.07;71.08
69503;SHT31;56704;54.242;12.442;2022-10-30T12:48:34;20.28;71.01
69503;SHT31;56704;54.242;12.442;2022-10-30T12:51:12;20.35;70.56
69503;SHT31;56704;54.242;12.442;2022-10-30T12:53:43;20.49;70.00
69503;SHT31;56704;54.242;12.442;2022-10-30T12:56:15;20.38;69.83
69503;SHT31;56704;54.242;12.442;2022-10-30T12:58:45;20.25;70.33
69503;SHT31;56704;54.242;12.442;2022-10-30T13:01:19;20.29;71.07
69503;SHT31;56704;54.242;12.442;2022-10-30T13:03:54;20.52;70.46
69503;SHT31;56704;54.242;12.442;2022-10-30T13:06:25;20.85;69.75
69503;SHT31;56704;54.242;12.442;2022-10-30T13:09:03;21.08;68.79
69503;SHT31;56704;54.242;12.442;2022-10-30T13:11:39;21.38;68.12
69503;SHT31;56704;54.242;12.442;2022-10-30T13:14:13;21.51;68.04
69503;SHT31;56704;54.242;12.442;2022-10-30T13:16:41;21.65;67.49
69503;SHT31;56704;54.242;12.442;2022-10-30T13:19:10;21.67;66.14
69503;SHT31;56704;54.242;12.442;2022-10-30T13:21:45;21.57;67.12
69503;SHT31;56704;54.242;12.442;2022-10-30T13:24:17;21.30;67.21
69503;SHT31;56704;54.242;12.442;2022-10-30T13:26:50;21.11;67.77
69503;SHT31;56704;54.242;12.442;2022-10-30T13:29:21;20.93;68.12
69503;SHT31;56704;54.242;12.442;2022-10-30T13:32:09;20.87;69.25
69503;SHT31;56704;54.242;12.442;2022-10-30T13:34:42;20.79;69.33
69503;SHT31;56704;54.242;12.442;2022-10-30T13:37:16;20.82;69.57
69503;SHT31;56704;54.242;12.442;2022-10-30T13:39:57;20.95;70.04
69503;SHT31;56704;54.242;12.442;2022-10-30T13:42:36;21.11;68.94
69503;SHT31;56704;54.242;12.442;2022-10-30T13:45:17;21.13;68.44
69503;SHT31;56704;54.242;12.442;2022-10-30T13:47:55;21.06;68.70
69503;SHT31;56704;54.242;12.442;2022-10-30T13:50:36;20.97;68.95
69503;SHT31;56704;54.242;12.442;2022-10-30T13:53:17;20.90;69.28
69503;SHT31;56704;54.242;12.442;2022-10-30T13:55:47;20.86;69.88
69503;SHT31;56704;54.242;12.442;2022-10-30T13:58:19;20.85;69.94
69503;SHT31;56704;54.242;12.442;2022-10-30T14:00:58;20.96;70.52
69503;SHT31;56704;54.242;12.442;2022-10-30T14:03:36;21.07;69.60
69503;SHT31;56704;54.242;12.442;2022-10-30T14:06:11;20.96;69.37
69503;SHT31;56704;54.242;12.442;2022-10-30T14:08:42;20.89;70.03
69503;SHT31;56704;54.242;12.442;2022-10-30T14:11:14;20.93;70.05
69503;SHT31;56704;54.242;12.442;2022-10-30T14:13:45;21.00;70.61
69503;SHT31;56704;54.242;12.442;2022-10-30T14:16:34;21.10;70.47
69503;SHT31;56704;54.242;12.442;2022-10-30T14:19:01;20.99;69.51
69503;SHT31;56704;54.242;12.442;2022-10-30T14:21:43;20.90;69.95
69503;SHT31;56704;54.242;12.442;2022-10-30T14:24:16;20.79;70.53
69503;SHT31;56704;54.242;12.442;2022-10-30T14:26:48;20.66;69.77
69503;SHT31;56704;54.242;12.442;2022-10-30T14:29:48;20.58;70.75
69503;SHT31;56704;54.242;12.442;2022-10-30T14:32:34;20.41;71.04
69503;SHT31;56704;54.242;12.442;2022-10-30T14:35:00;20.32;71.44
69503;SHT31;56704;54.242;12.442;2022-10-30T14:37:54;20.18;72.06
69503;SHT31;56704;54.242;12.442;2022-10-30T14:40:35;20.14;72.40
69503;SHT31;56704;54.242;12.442;2022-10-30T14:43:08;20.01;72.55
69503;SHT31;56704;54.242;12.442;2022-10-30T14:45:41;19.90;72.64
69503;SHT31;56704;54.242;12.442;2022-10-30T14:48:17;19.71;73.16
69503;SHT31;56704;54.242;12.442;2022-10-30T14:50:58;19.59;73.88
69503;SHT31;56704;54.242;12.442;2022-10-30T14:53:33;19.52;73.95
69503;SHT31;56704;54.242;12.442;2022-10-30T14:56:06;19.39;74.36
69503;SHT31;56704;54.242;12.442;2022-10-30T14:58:37;19.29;74.67
69503;SHT31;56704;54.242;12.442;2022-10-30T15:01:23;19.20;74.96
69503;SHT31;56704;54.242;12.442;2022-10-30T15:03:59;19.08;75.30
69503;SHT31;56704;54.242;12.442;2022-10-30T15:06:33;18.91;75.72
69503;SHT31;56704;54.242;12.442;2022-10-30T15:09:15;18.84;76.18
69503;SHT31;56704;54.242;12.442;2022-10-30T15:12:01;18.69;76.20
69503;SHT31;56704;54.242;12.442;2022-10-30T15:14:35;18.56;76.38
69503;SHT31;56704;54.242;12.442;2022-10-30T15:17:02;18.37;76.95
69503;SHT31;56704;54.242;12.442;2022-10-30T15:19:31;18.19;77.06
69503;SHT31;56704;54.242;12.442;2022-10-30T15:21:59;18.03;77.40
69503;SHT31;56704;54.242;12.442;2022-10-30T15:24:26;17.93;77.60
69503;SHT31;56704;54.242;12.442;2022-10-30T15:26:57;17.76;77.98
69503;SHT31;56704;54.242;12.442;2022-10-30T15:29:26;17.65;78.37
69503;SHT31;56704;54.242;12.442;2022-10-30T15:32:00;17.57;78.78
69503;SHT31;56704;54.242;12.442;2022-10-30T15:34:28;17.47;78.88
69503;SHT31;56704;54.242;12.442;2022-10-30T15:36:55;17.35;78.95